Accueil
METAR-TAF:

METAR-TAF

Aéroports :

Lusaka, Zambie

Aéroport international de Lusaka

latitude: 15-19-51S, longitude: 028-27-09E, altitude: 1152 m

Observation

Le bulletin a été fait il y a 17 heures et 1 minutes, à 11:00 UTC
Vent 12 kt de nord-est
Température 30°C
Humidité 24%
Pression 1019 hPa
Visibilité: 9000 m
Nuages épars à une hauteur de 3200 ft

METAR: FLKK 231100Z 05012KT 9000 SCT032 30/07 Q1019

Heure: 06:01 (04:01 UTC)

Prévision

Le bulletin a été fait il y a 6 heures et 1 minutes, à 22:00 UTC
Prévision valable du 24 à 00 UTC au 25 à 06 UTC
Vent 15 kt de est
Visibilité 10 km ou plus
pas de nuages en-dessous de 1500 mètres et pas de cumulonimbus.
Evoluant progressivement
du 24 à 06 UTC au 24 à 10 UTC
Vent 15 kt de est
Visibilité: 7000 m
brume sèche

TAF: FLKK 232200Z 2400/2506 08015KT CAVOK BECMG 2406/2410 10015KT 7000 HZ NSC

Observations et prévisions météorologiques de plus de 4000 aéroports (messages METAR et TAF).

Les stations disponibles sont représentées par des disques jaunes et rouges sur la carte.

Passer la souris dessus pour voir le nom de la station.

Cliquer dessus pour voir les observations et prévisions météorologiques.

Pour changer de carte: cliquez sur les boutons verts avec une croix noire pour zoomer, sur le bouton vert avec un tiret pour effectuer un zoom arrière, ou sur les flèches vertes pour les cartes adjacentes.


METAR-TAF: